Time;durP1;ratioP1;P1;durP2;ratioP2;P2;SDS_P1;SDS_P2;PMS_P1;PMS_P2;Temp;Humidity;BMP_temperature;BMP_pressure;BME280_temperature;BME280_humidity;BME280_pressure;Samples;Min_cycle;Max_cycle;Signal;HPM_P1;HPM_P2
2022/12/04 00:00:06;;;;;;;4.35;3.13;;;;;;;2.15;68.48;103006.59;5114409;28;20043;-69
2022/12/04 00:02:32;;;;;;;4.47;2.90;;;;;;;1.87;68.67;102979.00;5102794;28;20058;-71
2022/12/04 00:04:57;;;;;;;4.78;3.10;;;;;;;2.22;68.19;103007.97;5108223;28;20052;-69
2022/12/04 00:07:23;;;;;;;5.05;3.15;;;;;;;2.08;68.74;103003.44;5110035;28;20126;-70
2022/12/04 00:09:48;;;;;;;4.30;2.78;;;;;;;2.10;68.54;102996.25;5100367;28;20031;-69
2022/12/04 00:12:16;;;;;;;4.47;2.90;;;;;;;1.99;68.40;102985.44;5099711;28;20055;-70
2022/12/04 00:14:42;;;;;;;3.40;2.47;;;;;;;2.10;68.33;103024.63;5108851;28;20032;-69
2022/12/04 00:17:07;;;;;;;4.13;2.80;;;;;;;2.20;68.86;103016.97;5090379;28;20066;-69
2022/12/04 00:19:32;;;;;;;4.95;2.85;;;;;;;2.03;67.78;103024.13;5101425;28;20079;-69
2022/12/04 00:21:58;;;;;;;5.50;2.75;;;;;;;1.92;68.27;103004.44;5114023;28;20486;-69
2022/12/04 00:24:23;;;;;;;4.28;2.72;;;;;;;2.05;67.99;103014.28;5101212;28;20028;-68
2022/12/04 00:26:49;;;;;;;4.57;2.45;;;;;;;2.02;68.22;103018.88;5107989;28;20032;-69
2022/12/04 00:29:14;;;;;;;3.92;2.33;;;;;;;1.88;68.29;102988.69;5109620;28;20035;-69
2022/12/04 00:31:39;;;;;;;3.35;2.20;;;;;;;2.10;68.42;103021.97;5100850;28;20042;-69
2022/12/04 00:34:05;;;;;;;4.13;2.85;;;;;;;2.23;68.21;103020.31;5095500;28;20030;-69
2022/12/04 00:36:30;;;;;;;4.80;2.60;;;;;;;2.25;67.51;103014.88;5102070;28;20042;-68
2022/12/04 00:38:58;;;;;;;4.65;2.75;;;;;;;1.99;68.29;103019.09;5107566;28;20427;-70
2022/12/04 00:41:25;;;;;;;5.43;2.60;;;;;;;2.25;68.18;103013.13;5109814;28;20027;-69
2022/12/04 00:43:51;;;;;;;3.85;2.58;;;;;;;1.78;69.25;102995.47;5099163;28;20482;-69
2022/12/04 00:46:17;;;;;;;4.30;2.50;;;;;;;1.66;69.13;102969.66;5113510;28;20056;-69
2022/12/04 00:48:42;;;;;;;5.15;2.97;;;;;;;2.09;68.58;103012.31;5105335;28;20069;-69
2022/12/04 00:51:11;;;;;;;3.67;2.60;;;;;;;2.08;68.42;103007.91;5088364;28;20080;-68
2022/12/04 00:53:36;;;;;;;3.47;2.30;;;;;;;2.25;68.22;103006.91;5110765;28;20020;-72
2022/12/04 00:56:04;;;;;;;3.78;2.50;;;;;;;1.92;68.29;102986.72;5082107;28;20117;-68
2022/12/04 00:58:29;;;;;;;5.05;2.80;;;;;;;1.98;68.62;103006.75;5110005;28;20056;-68
2022/12/04 01:01:02;;;;;;;3.35;2.22;;;;;;;1.91;68.23;103005.38;5105004;28;20039;-69
2022/12/04 01:03:28;;;;;;;3.85;2.40;;;;;;;1.97;68.65;102997.06;5102970;28;20493;-69
2022/12/04 01:05:53;;;;;;;4.57;2.60;;;;;;;1.79;68.40;102978.63;5112214;28;20085;-69
2022/12/04 01:08:18;;;;;;;4.95;2.60;;;;;;;1.92;68.43;102992.03;5082993;28;20110;-69
2022/12/04 01:10:44;;;;;;;3.63;2.55;;;;;;;2.07;67.93;103001.75;5090913;28;20036;-69
2022/12/04 01:13:09;;;;;;;5.20;2.45;;;;;;;2.28;67.68;102996.97;5089974;28;20398;-69
2022/12/04 01:15:42;;;;;;;3.50;2.50;;;;;;;2.09;67.32;102994.56;5102238;28;20023;-69
2022/12/04 01:18:09;;;;;;;4.45;2.40;;;;;;;2.02;68.17;102997.66;5115473;28;20038;-69
2022/12/04 01:20:36;;;;;;;3.72;2.55;;;;;;;2.09;68.23;102999.88;5110577;28;20024;-69
2022/12/04 01:23:01;;;;;;;4.15;2.92;;;;;;;2.10;68.06;102984.78;5106916;28;20106;-68
2022/12/04 01:25:27;;;;;;;2.78;2.22;;;;;;;2.14;68.21;102988.13;5101851;28;20056;-68
2022/12/04 01:27:52;;;;;;;3.20;2.00;;;;;;;1.81;68.28;102952.81;5112162;28;20084;-68
2022/12/04 01:30:20;;;;;;;4.47;2.28;;;;;;;1.91;68.57;102992.13;5099588;28;20399;-69
2022/12/04 01:32:46;;;;;;;4.53;2.78;;;;;;;2.14;67.97;102994.28;5108686;28;20054;-70
2022/12/04 01:35:11;;;;;;;4.47;2.72;;;;;;;2.20;67.89;102991.28;5110889;28;20031;-69
2022/12/04 01:37:37;;;;;;;3.50;2.60;;;;;;;2.19;67.86;102994.03;5104140;28;20028;-70
2022/12/04 01:40:03;;;;;;;3.55;2.50;;;;;;;2.10;68.44;103001.56;5115965;28;20494;-70
2022/12/04 01:42:28;;;;;;;3.35;2.10;;;;;;;2.08;68.57;102991.97;5106112;28;20027;-69
2022/12/04 01:45:27;;;;;;;3.97;2.33;;;;;;;2.16;67.90;102999.53;5111437;28;20028;-69
2022/12/04 01:47:57;;;;;;;4.68;2.53;;;;;;;2.21;68.27;102987.66;5116076;28;20030;-69
2022/12/04 01:50:23;;;;;;;5.47;2.45;;;;;;;2.27;67.54;102973.16;5103863;28;20489;-71
2022/12/04 01:52:49;;;;;;;3.25;2.40;;;;;;;2.28;68.37;102993.47;5111876;27;20031;-70
2022/12/04 01:55:15;;;;;;;3.10;2.05;;;;;;;2.06;68.43;102983.28;5094064;28;20031;-69
2022/12/04 01:57:41;;;;;;;3.90;2.80;;;;;;;2.34;68.20;102982.47;5103691;28;20050;-69
2022/12/04 02:00:12;;;;;;;2.80;2.15;;;;;;;2.27;68.42;102991.75;5116372;28;20142;-69
2022/12/04 02:02:41;;;;;;;3.60;2.45;;;;;;;2.22;68.08;102956.63;5105496;28;20499;-69
2022/12/04 02:05:09;;;;;;;4.30;2.55;;;;;;;2.34;68.15;102995.75;5109416;28;20043;-69
2022/12/04 02:07:35;;;;;;;5.82;2.60;;;;;;;2.32;68.61;102989.69;5114807;28;20110;-69
2022/12/04 02:10:05;;;;;;;3.70;2.60;;;;;;;2.29;69.26;102996.03;5101931;28;20036;-69
2022/12/04 02:12:48;;;;;;;5.07;2.70;;;;;;;2.48;68.20;102984.28;5113416;28;20401;-69
2022/12/04 02:15:33;;;;;;;4.28;2.35;;;;;;;2.28;69.11;102982.84;5110659;28;20039;-69
2022/12/04 02:18:09;;;;;;;2.97;2.38;;;;;;;2.32;69.68;102995.84;5103737;28;20062;-69
2022/12/04 02:20:52;;;;;;;3.15;2.10;;;;;;;2.25;69.72;102983.00;5113129;28;20035;-70
2022/12/04 02:23:31;;;;;;;3.92;2.60;;;;;;;2.41;69.25;102994.44;5112287;28;20041;-69
2022/12/04 02:26:38;;;;;;;5.57;2.50;;;;;;;2.49;69.14;102988.69;5101673;28;20024;-69
2022/12/04 02:29:22;;;;;;;4.35;2.53;;;;;;;2.61;68.74;102984.41;5113847;27;20039;-69
2022/12/04 02:31:56;;;;;;;5.32;2.88;;;;;;;2.49;68.63;102986.03;5114688;28;20087;-69
2022/12/04 02:34:53;;;;;;;4.82;2.90;;;;;;;2.51;69.52;102984.09;5088530;28;20023;-69
2022/12/04 02:37:26;;;;;;;4.28;2.67;;;;;;;2.52;69.94;102980.53;5098242;28;20040;-69
2022/12/04 02:40:10;;;;;;;3.72;2.55;;;;;;;2.47;70.25;102980.78;5114556;28;20077;-69
2022/12/04 02:42:44;;;;;;;4.00;2.63;;;;;;;2.35;69.66;102950.50;5104802;28;20015;-69
2022/12/04 02:45:19;;;;;;;4.18;2.42;;;;;;;2.59;69.69;102981.84;5105766;28;20270;-69
2022/12/04 02:47:45;;;;;;;3.28;2.47;;;;;;;2.49;70.49;102975.41;5114188;28;20035;-69
2022/12/04 02:50:48;;;;;;;3.78;2.70;;;;;;;2.57;69.60;102968.66;5100970;28;20037;-70
2022/12/04 02:53:18;;;;;;;3.92;2.65;;;;;;;2.42;69.99;102976.69;5107891;28;20031;-69
2022/12/04 02:55:55;;;;;;;5.50;2.63;;;;;;;2.40;71.00;102983.91;5113860;28;20032;-69
2022/12/04 02:58:28;;;;;;;3.83;2.60;;;;;;;2.59;70.75;102977.38;5102837;27;20126;-69
2022/12/04 03:00:56;;;;;;;3.65;2.42;;;;;;;2.69;69.89;102985.66;5108905;28;20398;-69
2022/12/04 03:03:27;;;;;;;3.58;2.40;;;;;;;2.55;69.68;102988.28;5111948;28;20032;-69
2022/12/04 03:05:55;;;;;;;4.10;2.30;;;;;;;2.49;70.13;102980.72;5102209;28;20046;-69
2022/12/04 03:08:27;;;;;;;5.60;2.70;;;;;;;2.49;69.44;102954.13;5113648;28;20090;-69
2022/12/04 03:10:56;;;;;;;3.88;2.53;;;;;;;2.80;69.40;102996.47;5107563;28;20076;-69
2022/12/04 03:13:33;;;;;;;4.32;2.60;;;;;;;2.58;69.91;102986.31;5105324;27;20038;-70
2022/12/04 03:16:06;;;;;;;3.75;2.70;;;;;;;2.35;69.96;102958.50;5112369;28;20031;-69
2022/12/04 03:18:38;;;;;;;3.05;2.40;;;;;;;2.37;71.03;102971.66;5103825;28;20027;-69
2022/12/04 03:21:10;;;;;;;5.10;2.63;;;;;;;2.28;71.02;102989.00;5107235;28;20024;-69
2022/12/04 03:24:01;;;;;;;4.55;2.53;;;;;;;2.65;69.81;102988.56;5113286;28;20062;-69
2022/12/04 03:26:38;;;;;;;3.60;2.40;;;;;;;2.66;69.63;102983.19;5088853;28;20490;-69
2022/12/04 03:29:20;;;;;;;3.47;2.25;;;;;;;2.50;70.06;102993.03;5108577;28;20060;-69
2022/12/04 03:31:50;;;;;;;2.72;2.13;;;;;;;2.52;70.09;102986.69;5114024;28;20069;-69
2022/12/04 03:34:27;;;;;;;3.65;2.55;;;;;;;2.61;70.40;102992.38;5084236;28;20020;-69
2022/12/04 03:37:02;;;;;;;3.80;2.50;;;;;;;2.44;70.35;102977.47;5092345;28;20034;-69
2022/12/04 03:39:40;;;;;;;4.75;2.40;;;;;;;2.44;70.49;102988.09;5110468;28;20489;-69
2022/12/04 03:42:38;;;;;;;5.93;2.58;;;;;;;2.47;69.92;102990.56;5101618;28;20547;-69
2022/12/04 03:45:19;;;;;;;3.55;2.25;;;;;;;2.51;70.51;102984.09;5108124;28;20040;-69
2022/12/04 03:48:07;;;;;;;4.20;2.70;;;;;;;2.54;70.38;102984.78;5112324;28;20405;-69
2022/12/04 03:51:06;;;;;;;4.25;2.50;;;;;;;2.50;70.61;102995.69;5104048;27;20061;-69
2022/12/04 03:53:37;;;;;;;5.88;2.40;;;;;;;2.63;70.20;102986.03;5102441;28;20486;-69
2022/12/04 03:56:17;;;;;;;4.22;2.20;;;;;;;2.41;70.64;102967.00;5112819;28;20562;-70
2022/12/04 03:58:50;;;;;;;3.65;2.30;;;;;;;2.48;70.92;102992.25;5106310;28;20380;-69
2022/12/04 04:01:21;;;;;;;3.25;2.08;;;;;;;2.45;71.11;102992.44;5105750;28;20475;-69
2022/12/04 04:03:52;;;;;;;3.22;2.22;;;;;;;2.68;70.37;102993.72;5113815;28;20039;-69
2022/12/04 04:06:31;;;;;;;3.65;2.58;;;;;;;2.46;71.16;102989.72;5083375;28;20034;-69
2022/12/04 04:09:02;;;;;;;3.88;2.55;;;;;;;2.44;71.45;102986.28;5107349;28;20321;-69
2022/12/04 04:11:33;;;;;;;3.53;2.28;;;;;;;2.61;71.29;102989.72;5109480;28;20026;-69
2022/12/04 04:25:46;;;;;;;6.40;2.40;;;;;;;2.49;72.53;102983.38;5102056;28;20034;-68
2022/12/04 04:28:38;;;;;;;4.28;2.40;;;;;;;2.62;72.11;102978.16;5114039;28;20036;-69
2022/12/04 04:31:09;;;;;;;3.75;2.33;;;;;;;2.54;72.80;102983.94;5106111;28;20038;-69
2022/12/04 04:33:47;;;;;;;3.50;2.20;;;;;;;2.80;72.24;102982.34;5105466;28;20032;-69
2022/12/04 04:36:24;;;;;;;3.60;2.30;;;;;;;2.72;72.12;102966.88;5114729;28;20498;-69
2022/12/04 04:39:01;;;;;;;3.55;2.20;;;;;;;2.61;73.30;102974.63;5104116;28;20012;-69
2022/12/04 04:41:48;;;;;;;3.03;2.30;;;;;;;2.52;72.81;102960.13;5104461;28;20032;-69
2022/12/04 04:44:36;;;;;;;4.32;2.42;;;;;;;2.68;72.86;102969.78;5108901;27;20031;-69
2022/12/04 04:47:07;;;;;;;4.35;2.75;;;;;;;2.55;72.56;102936.00;5105440;28;20020;-69
2022/12/04 04:49:36;;;;;;;3.33;2.38;;;;;;;2.82;72.00;102961.84;5102003;28;20032;-69
2022/12/04 04:52:01;;;;;;;4.53;2.67;;;;;;;2.46;72.82;102938.38;5113937;28;20031;-71
2022/12/04 04:54:29;;;;;;;3.42;2.50;;;;;;;2.66;73.15;102966.38;5099885;28;20038;-69
2022/12/04 04:56:55;;;;;;;4.75;2.70;;;;;;;2.66;73.21;102964.56;5106945;28;20028;-69
2022/12/04 04:59:20;;;;;;;3.95;2.42;;;;;;;2.60;73.38;102956.97;5109566;28;20051;-69
2022/12/04 05:01:46;;;;;;;3.13;2.30;;;;;;;2.63;73.77;102956.78;5101561;28;20036;-71
2022/12/04 05:04:12;;;;;;;4.35;2.65;;;;;;;2.74;73.37;102958.78;5113897;28;20046;-69
2022/12/04 05:06:37;;;;;;;3.90;2.40;;;;;;;2.70;73.23;102946.63;5101375;28;20031;-71
2022/12/04 05:09:03;;;;;;;3.22;2.47;;;;;;;2.58;73.72;102958.88;5105455;28;20059;-70
2022/12/04 05:11:29;;;;;;;3.58;2.40;;;;;;;2.69;72.98;102960.88;5110331;28;20031;-70
2022/12/04 05:13:55;;;;;;;3.45;2.38;;;;;;;2.92;72.74;102959.47;5100320;28;20386;-70
2022/12/04 05:16:21;;;;;;;4.85;2.60;;;;;;;3.00;72.74;102962.47;5111521;28;20039;-71
2022/12/04 05:21:31;;;;;;;3.63;2.63;;;;;;;2.87;72.66;102962.38;5103229;28;20038;-71
2022/12/04 05:23:57;;;;;;;4.40;2.80;;;;;;;2.88;73.13;102966.78;5116766;28;20115;-70
2022/12/04 05:26:23;;;;;;;4.07;2.65;;;;;;;2.81;72.83;102936.19;5104705;28;20112;-71
2022/12/04 05:28:48;;;;;;;5.65;2.35;;;;;;;3.02;72.09;102963.25;5093363;28;20032;-71
2022/12/04 05:31:14;;;;;;;3.97;2.58;;;;;;;3.08;72.24;102962.88;5111911;28;20040;-72
2022/12/04 05:33:39;;;;;;;3.40;2.58;;;;;;;3.04;72.63;102967.50;5094956;28;20024;-72
2022/12/04 05:36:08;;;;;;;3.08;2.40;;;;;;;3.20;72.31;102958.53;5106700;28;20605;-70
2022/12/04 05:38:33;;;;;;;4.85;2.58;;;;;;;3.06;72.49;102956.78;5113077;28;20125;-70
2022/12/04 05:41:00;;;;;;;4.28;2.58;;;;;;;2.83;73.01;102945.78;5117836;28;20032;-71
2022/12/04 05:43:25;;;;;;;3.60;2.60;;;;;;;2.72;73.47;102934.13;5120757;28;20046;-71
2022/12/04 05:45:51;;;;;;;3.70;2.60;;;;;;;2.75;73.73;102944.56;5088689;28;20421;-70
2022/12/04 05:48:16;;;;;;;3.75;2.65;;;;;;;2.85;74.18;102968.75;5120467;28;20044;-71
2022/12/04 05:50:42;;;;;;;3.60;2.78;;;;;;;2.98;73.66;102967.03;5109753;28;20058;-70
2022/12/04 05:53:07;;;;;;;4.28;2.85;;;;;;;2.90;73.97;102974.63;5115437;28;20036;-70
2022/12/04 05:55:33;;;;;;;3.47;2.50;;;;;;;2.79;74.37;102957.56;5117755;28;20035;-69
2022/12/04 05:57:58;;;;;;;4.88;2.50;;;;;;;2.92;74.82;102972.75;5088976;28;20452;-70
2022/12/04 06:00:24;;;;;;;3.65;2.47;;;;;;;2.89;75.31;102967.63;5119958;28;20059;-70
2022/12/04 06:02:49;;;;;;;4.38;2.95;;;;;;;3.02;74.59;102968.56;5111244;28;20092;-69
2022/12/04 06:05:15;;;;;;;3.47;2.60;;;;;;;3.01;74.17;102974.81;5111323;28;20036;-70
2022/12/04 06:07:40;;;;;;;3.50;2.40;;;;;;;2.71;74.96;102938.56;5117968;28;20189;-70
2022/12/04 06:10:06;;;;;;;4.30;2.75;;;;;;;2.92;74.90;102964.78;5107435;28;20051;-70
2022/12/04 06:12:32;;;;;;;3.70;2.60;;;;;;;3.05;74.62;102963.91;5119437;28;20027;-71
2022/12/04 06:14:57;;;;;;;4.18;2.67;;;;;;;2.88;75.01;102964.13;5111680;28;20035;-70
2022/12/04 06:17:23;;;;;;;4.15;2.58;;;;;;;2.85;75.82;102972.28;5111778;28;20063;-70
2022/12/04 06:19:48;;;;;;;4.40;2.88;;;;;;;2.98;76.10;102972.34;5120843;28;20035;-70
2022/12/04 06:22:14;;;;;;;3.58;2.50;;;;;;;2.89;75.51;102964.97;5111368;28;22315;-70
2022/12/04 06:24:42;;;;;;;3.70;2.60;;;;;;;2.95;75.55;102989.38;5124075;28;20225;-70
2022/12/04 06:27:07;;;;;;;4.03;2.58;;;;;;;2.95;75.99;102975.22;5120421;28;20031;-70
2022/12/04 06:29:33;;;;;;;5.00;2.83;;;;;;;3.09;75.20;102980.53;5117000;28;20141;-70
2022/12/04 06:31:58;;;;;;;3.60;2.72;;;;;;;2.75;75.92;102979.13;5127268;28;20061;-69
2022/12/04 06:34:23;;;;;;;4.50;2.63;;;;;;;2.90;76.19;102995.91;5112580;28;20024;-70
2022/12/04 06:36:49;;;;;;;4.30;2.60;;;;;;;2.97;76.19;102987.44;5105772;28;20039;-71
2022/12/04 06:39:14;;;;;;;4.50;2.40;;;;;;;2.94;76.04;102984.13;5120034;28;20031;-70
2022/12/04 06:41:40;;;;;;;3.78;2.50;;;;;;;3.01;75.87;102993.44;5115653;28;20032;-70
2022/12/04 06:44:05;;;;;;;5.57;2.50;;;;;;;2.94;75.92;102970.84;5124961;28;20028;-70
2022/12/04 06:46:32;;;;;;;4.20;2.50;;;;;;;3.08;75.81;102978.81;5110929;28;20087;-72
2022/12/04 06:49:00;;;;;;;3.05;2.65;;;;;;;2.92;76.58;102996.69;5119075;28;20035;-69
2022/12/04 06:51:31;;;;;;;3.63;2.75;;;;;;;2.76;76.74;102979.00;5120243;28;20034;-70
2022/12/04 06:53:58;;;;;;;4.07;2.72;;;;;;;3.00;76.47;102981.09;5112635;28;20023;-70
2022/12/04 06:56:26;;;;;;;4.38;2.65;;;;;;;3.12;75.79;102990.13;5125567;28;20103;-70
2022/12/04 06:58:53;;;;;;;3.58;2.35;;;;;;;3.11;76.19;102994.56;5116738;28;20071;-70
2022/12/04 07:01:21;;;;;;;3.45;2.38;;;;;;;3.15;76.63;102988.13;5115666;28;20035;-70
2022/12/04 07:03:47;;;;;;;4.80;2.78;;;;;;;3.41;75.12;102997.09;5126160;28;20004;-70
2022/12/04 07:06:19;;;;;;;3.85;2.42;;;;;;;3.45;74.85;102995.94;5113974;28;20039;-71
2022/12/04 07:08:47;;;;;;;5.00;2.65;;;;;;;3.36;75.33;102998.34;5123615;28;20449;-71
2022/12/04 07:11:13;;;;;;;3.92;2.50;;;;;;;3.20;74.80;102977.16;5108623;28;20032;-69
2022/12/04 07:13:39;;;;;;;3.47;2.35;;;;;;;3.29;75.06;103006.72;5126045;28;20024;-70
2022/12/04 07:16:11;;;;;;;4.10;2.55;;;;;;;2.98;76.33;102986.53;5115930;28;20093;-71
2022/12/04 07:18:40;;;;;;;3.95;2.50;;;;;;;3.23;75.67;103000.91;5114959;28;20024;-69
2022/12/04 07:21:11;;;;;;;3.75;2.47;;;;;;;3.16;75.83;102979.19;5107925;28;20027;-70
2022/12/04 07:23:36;;;;;;;4.05;2.90;;;;;;;3.30;75.95;103007.56;5104113;28;20092;-70
2022/12/04 07:26:09;;;;;;;4.30;2.45;;;;;;;3.02;75.26;102952.59;5115801;28;20063;-70
2022/12/04 07:28:36;;;;;;;5.03;2.25;;;;;;;3.38;75.74;103007.06;5103021;28;20089;-69
2022/12/04 07:31:06;;;;;;;3.45;2.38;;;;;;;3.41;74.85;103007.75;5111775;28;20482;-70
2022/12/04 07:33:32;;;;;;;4.10;2.50;;;;;;;3.28;74.53;102965.09;5105766;28;20028;-70
2022/12/04 07:35:59;;;;;;;3.72;2.50;;;;;;;3.46;74.87;103010.09;5113739;28;20057;-69
2022/12/04 07:38:25;;;;;;;3.42;2.30;;;;;;;3.45;75.10;103019.91;5102495;28;20169;-70
2022/12/04 07:40:55;;;;;;;3.72;2.60;;;;;;;3.47;74.54;103011.81;5110958;28;20068;-70
2022/12/04 07:43:20;;;;;;;2.83;2.20;;;;;;;3.15;75.11;102985.47;5110169;28;20032;-70
2022/12/04 07:45:45;;;;;;;3.90;2.30;;;;;;;2.88;75.88;102981.84;5113037;28;20043;-70
2022/12/04 07:48:11;;;;;;;3.67;2.40;;;;;;;3.20;76.23;103015.25;5101189;28;20032;-70
2022/12/04 07:50:36;;;;;;;3.08;2.17;;;;;;;3.24;75.38;102995.50;5111447;28;20136;-70
2022/12/04 07:53:02;;;;;;;5.78;2.40;;;;;;;3.09;77.00;103003.63;5107360;28;20019;-70
2022/12/04 07:55:27;;;;;;;3.00;2.20;;;;;;;3.22;76.09;103002.75;5105832;28;20036;-70
2022/12/04 07:57:52;;;;;;;4.55;2.50;;;;;;;3.00;76.48;102976.63;5113217;28;20057;-70
2022/12/04 08:00:18;;;;;;;3.15;2.17;;;;;;;3.12;76.70;103008.75;5081815;28;20047;-70
2022/12/04 08:02:43;;;;;;;4.38;2.58;;;;;;;3.16;76.96;103012.91;5109125;28;20035;-69
2022/12/04 08:05:09;;;;;;;3.17;2.28;;;;;;;3.12;76.86;103014.91;5105410;28;20031;-69
2022/12/04 08:07:34;;;;;;;3.45;2.35;;;;;;;2.95;76.47;102969.91;5101545;28;20077;-69
2022/12/04 08:10:00;;;;;;;3.15;2.42;;;;;;;3.21;76.21;103011.69;5094431;28;20039;-69
2022/12/04 08:12:25;;;;;;;3.35;2.50;;;;;;;3.23;76.20;103015.06;5099467;28;20101;-70
2022/12/04 08:14:50;;;;;;;3.47;2.05;;;;;;;3.20;75.17;102987.81;5090592;28;20472;-70
2022/12/04 08:17:16;;;;;;;3.78;2.45;;;;;;;3.27;75.73;103011.25;5106933;28;20035;-70
2022/12/04 08:19:41;;;;;;;4.05;2.50;;;;;;;3.12;75.78;102984.81;5102696;28;20032;-70
2022/12/04 08:22:06;;;;;;;3.63;2.50;;;;;;;3.28;75.39;103018.31;5114299;28;20090;-70
2022/12/04 08:24:32;;;;;;;3.08;2.10;;;;;;;3.20;76.67;103012.59;5102675;28;20027;-70
2022/12/04 08:26:57;;;;;;;3.83;2.35;;;;;;;3.11;76.12;103015.00;5108839;28;20024;-70
2022/12/04 08:29:23;;;;;;;3.60;2.35;;;;;;;3.10;76.09;103019.47;5108936;28;20063;-70
2022/12/04 08:31:48;;;;;;;4.07;2.30;;;;;;;3.23;76.33;103025.72;5100407;28;20032;-70
2022/12/04 08:34:14;;;;;;;3.22;2.10;;;;;;;3.20;76.82;103020.59;5115671;28;20058;-70
2022/12/04 08:36:39;;;;;;;3.40;2.50;;;;;;;3.24;75.73;103021.25;5102778;28;20108;-70
2022/12/04 08:39:05;;;;;;;3.05;2.33;;;;;;;3.27;76.07;103021.06;5108839;28;20388;-70
2022/12/04 08:41:30;;;;;;;3.30;2.10;;;;;;;2.91;75.78;102976.34;5096959;28;20494;-70
2022/12/04 08:43:56;;;;;;;3.55;2.15;;;;;;;2.90;76.08;102980.81;5106684;28;20051;-70
2022/12/04 08:46:27;;;;;;;3.58;2.13;;;;;;;3.25;75.56;103015.00;5097918;28;20102;-70
2022/12/04 08:48:53;;;;;;;3.28;2.08;;;;;;;3.16;76.76;103021.75;5106041;28;20032;-70
2022/12/04 08:51:21;;;;;;;2.75;2.10;;;;;;;3.02;76.24;103016.44;5105559;28;20119;-70
2022/12/04 08:53:51;;;;;;;4.05;2.35;;;;;;;2.73;76.25;102949.97;5112977;28;20023;-70
2022/12/04 08:56:16;;;;;;;3.42;2.20;;;;;;;3.23;75.91;103017.75;5100967;28;20065;-70
2022/12/04 08:58:43;;;;;;;2.85;2.25;;;;;;;3.11;76.62;103031.81;5109999;28;20048;-70
2022/12/04 09:01:11;;;;;;;6.88;2.30;;;;;;;3.27;76.72;103019.25;5105750;28;20046;-70
2022/12/04 09:03:37;;;;;;;3.42;2.38;;;;;;;3.02;76.24;102993.34;5103854;28;20028;-70
2022/12/04 09:06:22;;;;;;;3.92;2.55;;;;;;;3.27;75.96;103026.38;5113961;28;20047;-70
2022/12/04 09:08:53;;;;;;;2.83;2.20;;;;;;;3.20;76.09;103007.28;5074657;28;20153;-70
2022/12/04 09:11:21;;;;;;;3.95;1.85;;;;;;;3.01;77.12;103009.38;5074501;28;20041;-70
2022/12/04 09:13:47;;;;;;;3.05;2.08;;;;;;;3.04;76.62;103001.22;5074526;28;20451;-70
2022/12/04 09:16:18;;;;;;;2.95;2.20;;;;;;;3.22;76.03;103024.03;5057794;28;20040;-70
2022/12/04 09:18:45;;;;;;;2.67;2.10;;;;;;;3.16;76.53;103028.88;5057713;28;20036;-70
2022/12/04 09:21:13;;;;;;;3.20;2.40;;;;;;;3.14;76.55;103039.59;5074715;28;20028;-70
2022/12/04 09:23:39;;;;;;;3.97;2.50;;;;;;;3.00;76.42;103003.22;5057587;28;20086;-70
2022/12/04 09:26:26;;;;;;;4.30;2.10;;;;;;;3.13;76.94;103024.59;5057619;28;20048;-70
2022/12/04 09:28:53;;;;;;;2.83;1.95;;;;;;;3.22;76.42;103025.81;5034038;28;20041;-70
2022/12/04 09:31:19;;;;;;;3.15;2.17;;;;;;;3.25;76.46;103018.50;5033996;28;20049;-70
2022/12/04 09:33:45;;;;;;;3.70;2.25;;;;;;;3.13;76.49;103027.25;5034568;28;20420;-70
2022/12/04 09:36:17;;;;;;;3.67;2.25;;;;;;;3.26;76.39;103017.53;5034514;28;20034;-70
2022/12/04 09:38:50;;;;;;;3.22;2.30;;;;;;;3.25;76.63;103015.84;5035733;28;20100;-70
2022/12/04 09:41:43;;;;;;;3.50;2.50;;;;;;;3.24;76.19;103016.78;5064927;28;20120;-70
2022/12/04 09:44:37;;;;;;;3.33;2.22;;;;;;;3.30;75.81;103016.38;5057633;28;20041;-70
2022/12/04 09:47:08;;;;;;;2.92;2.10;;;;;;;3.16;76.92;103013.75;5028544;28;20042;-70
2022/12/04 09:49:49;;;;;;;2.60;2.05;;;;;;;3.15;76.95;103006.75;5030338;28;20428;-70
2022/12/04 09:52:50;;;;;;;3.63;2.45;;;;;;;3.17;76.99;103009.28;5020444;28;20041;-70
2022/12/04 09:55:24;;;;;;;3.13;2.50;;;;;;;3.09;77.04;103007.13;5046040;28;20092;-70
2022/12/04 09:57:52;;;;;;;3.77;2.40;;;;;;;3.28;76.16;103013.00;5036888;28;20085;-70
2022/12/04 10:00:19;;;;;;;3.45;2.20;;;;;;;3.11;76.39;103001.69;5041027;28;20068;-70
2022/12/04 10:02:51;;;;;;;3.90;2.33;;;;;;;3.43;75.45;103002.31;5034903;28;20499;-70
2022/12/04 10:05:25;;;;;;;2.60;2.33;;;;;;;3.26;75.56;103014.88;5033815;28;20032;-71
2022/12/04 10:08:14;;;;;;;3.50;2.00;;;;;;;3.34;76.15;103010.88;5045622;28;20505;-70
2022/12/04 10:10:44;;;;;;;3.47;2.15;;;;;;;3.22;75.45;102981.44;5063853;28;20253;-71
2022/12/04 10:13:16;;;;;;;2.83;2.15;;;;;;;3.21;75.69;103000.16;5051251;28;20515;-70
2022/12/04 10:15:57;;;;;;;5.72;2.72;;;;;;;3.27;76.67;103011.25;5055235;28;20549;-70
2022/12/04 10:19:02;;;;;;;3.92;1.90;;;;;;;3.32;75.78;103002.16;5088635;28;20035;-70
2022/12/04 10:21:31;;;;;;;3.88;2.22;;;;;;;3.28;76.37;103010.34;5099198;27;20050;-70
2022/12/04 10:24:00;;;;;;;4.22;2.50;;;;;;;3.39;75.79;103009.66;5115960;28;20027;-70
2022/12/04 10:26:32;;;;;;;5.43;4.40;;;;;;;3.35;75.29;103000.16;5086136;28;20035;-70
2022/12/04 10:29:01;;;;;;;3.45;2.50;;;;;;;3.56;75.50;103005.03;5112517;27;20380;-70
2022/12/04 10:31:31;;;;;;;2.50;1.92;;;;;;;3.44;74.67;103006.69;5112912;28;20088;-70
2022/12/04 10:34:14;;;;;;;2.97;1.85;;;;;;;3.19;75.39;103002.94;5104537;28;20052;-70
2022/12/04 10:36:44;;;;;;;5.60;3.95;;;;;;;3.45;75.41;102995.94;5091228;28;20087;-70
2022/12/04 10:39:20;;;;;;;5.07;2.35;;;;;;;3.14;75.12;102956.28;5110272;28;20032;-70
2022/12/04 10:42:05;;;;;;;4.30;2.90;;;;;;;3.25;74.92;103007.88;5113549;28;20027;-70
2022/12/04 10:44:30;;;;;;;3.42;2.00;;;;;;;3.30;75.82;103002.25;5094294;28;20074;-70
2022/12/04 10:46:59;;;;;;;4.07;2.42;;;;;;;3.41;74.64;102998.88;5121434;28;20028;-75
2022/12/04 10:49:27;;;;;;;3.35;2.28;;;;;;;3.11;75.64;102967.09;5116485;28;20401;-70
2022/12/04 10:51:53;;;;;;;3.45;2.25;;;;;;;3.23;74.91;102977.81;5104141;28;20032;-70
2022/12/04 10:54:25;;;;;;;4.00;2.08;;;;;;;3.44;74.86;102991.56;5116922;28;20041;-70
2022/12/04 10:57:12;;;;;;;3.58;2.63;;;;;;;3.47;74.42;102994.03;5105750;28;20024;-70
2022/12/04 10:59:55;;;;;;;2.67;1.90;;;;;;;3.42;74.57;102988.16;5106337;28;20048;-70
2022/12/04 11:02:27;;;;;;;3.20;2.10;;;;;;;3.49;75.17;102988.63;5115115;28;20031;-70
2022/12/04 11:05:07;;;;;;;3.72;2.20;;;;;;;3.58;74.33;102990.69;5105639;28;20432;-70
2022/12/04 11:07:44;;;;;;;3.80;2.20;;;;;;;3.32;74.94;102989.69;5104220;28;20040;-70
2022/12/04 11:10:23;;;;;;;5.03;2.03;;;;;;;3.49;74.72;102993.94;5115450;28;20031;-70
2022/12/04 11:13:11;;;;;;;3.22;2.20;;;;;;;3.57;73.93;102983.63;5106630;28;20032;-70
2022/12/04 11:15:44;;;;;;;4.93;2.40;;;;;;;3.38;75.74;102985.78;5106582;28;20024;-70
2022/12/04 11:18:25;;;;;;;4.05;1.95;;;;;;;3.44;74.45;102986.22;5116279;28;20051;-70
2022/12/04 11:21:01;;;;;;;3.35;2.20;;;;;;;3.40;75.12;102984.72;5106782;28;20019;-70
2022/12/04 11:23:31;;;;;;;2.95;1.98;;;;;;;3.58;74.87;102974.72;5106052;28;20475;-70
2022/12/04 11:25:58;;;;;;;2.53;1.60;;;;;;;3.30;76.17;102972.97;5116405;28;20053;-70
2022/12/04 11:28:29;;;;;;;8.43;6.28;;;;;;;3.23;76.28;102977.81;5101163;28;20028;-70
2022/12/04 11:30:58;;;;;;;12.57;6.93;;;;;;;3.50;75.66;102971.69;5110455;28;20043;-70
2022/12/04 11:33:54;;;;;;;3.20;2.22;;;;;;;3.34;75.79;102979.78;5109736;28;20046;-70
2022/12/04 11:36:40;;;;;;;3.70;2.58;;;;;;;3.36;75.81;102969.06;5101891;28;20543;-70
2022/12/04 11:39:17;;;;;;;8.10;5.13;;;;;;;3.46;76.43;102967.53;5087797;28;20040;-70
2022/12/04 11:41:42;;;;;;;4.00;2.33;;;;;;;3.48;76.21;102970.94;5090722;28;20040;-70
2022/12/04 11:44:28;;;;;;;12.05;6.18;;;;;;;3.46;76.43;102967.53;5079336;28;20050;-70
2022/12/04 11:46:56;;;;;;;2.63;1.90;;;;;;;3.22;77.08;102968.16;5072090;28;20052;-70
2022/12/04 11:49:24;;;;;;;4.88;3.35;;;;;;;3.52;76.70;102964.47;5087834;28;20040;-70
2022/12/04 11:52:11;;;;;;;3.05;2.10;;;;;;;3.43;76.40;102963.25;5064415;28;20111;-70
2022/12/04 11:54:46;;;;;;;3.42;2.30;;;;;;;3.55;76.29;102971.41;5066391;28;20028;-70
2022/12/04 11:57:37;;;;;;;3.97;1.83;;;;;;;3.54;76.67;102975.84;5086356;28;20138;-70
2022/12/04 12:00:14;;;;;;;3.45;2.17;;;;;;;3.75;75.89;102958.47;5092658;28;20059;-70
2022/12/04 12:03:06;;;;;;;2.83;1.98;;;;;;;3.66;75.78;102956.41;5081758;28;20073;-70
2022/12/04 12:06:09;;;;;;;3.33;2.05;;;;;;;3.70;76.57;102970.38;5066534;28;20040;-70